Auburn, Georgia
Current Conditions -  °F | °C
As of 2:15 PM on Friday 28 Nov 2014 (Local Time) from KWDR Reporting Station
Clear Clear  
Wind Chill: 49°   Ceiling: Unl
Heat Index: 49°   Visibility: 10mi
Dew Point: 25°   Wind: 0mph
Humidity: 39%   Direction: NA
Pressure: 30.33"   Gusts: NA
Location:  34.01°N, 83.83°W
Report Text: KWDR 281915Z AUTO 00000KT 10SM CLR 10/M04 A3033 RMK AO2 T00961038
Loading
Personal Weather Stations






























Interactive Weather Map New forecast layout! Learn more

10-Day Weather Forecast

Advertisements
Track Severe Weather on mobile